Time;durP1;ratioP1;P1;durP2;ratioP2;P2;SDS_P1;SDS_P2;PMS_P1;PMS_P2;Temp;Humidity;BMP_temperature;BMP_pressure;BME280_temperature;BME280_humidity;BME280_pressure;Samples;Min_cycle;Max_cycle;Signal;HPM_P1;HPM_P2
2022/05/30 00:00:56;;;;;;;1.85;0.82;;;13.40;92.70;;;;;;5023411;28;20144;-78
2022/05/30 00:03:22;;;;;;;1.83;1.35;;;13.40;92.80;;;;;;5019182;28;20458;-79
2022/05/30 00:05:49;;;;;;;2.67;1.67;;;13.40;92.90;;;;;;5029149;28;20091;-78
2022/05/30 00:08:16;;;;;;;3.22;1.42;;;13.40;93.20;;;;;;5025864;28;20481;-78
2022/05/30 00:10:42;;;;;;;1.95;1.70;;;13.40;93.00;;;;;;5027445;28;20297;-79
2022/05/30 00:13:08;;;;;;;3.92;1.67;;;13.40;93.20;;;;;;5022114;28;20594;-79
2022/05/30 00:15:33;;;;;;;2.38;1.70;;;13.30;93.30;;;;;;5025717;28;20091;-79
2022/05/30 00:17:59;;;;;;;2.83;1.90;;;13.40;93.40;;;;;;5028933;28;20087;-78
2022/05/30 00:20:25;;;;;;;2.88;1.67;;;13.40;93.40;;;;;;5029456;28;20526;-79
2022/05/30 00:22:51;;;;;;;3.50;1.60;;;13.40;93.30;;;;;;5028573;28;20040;-79
2022/05/30 00:25:16;;;;;;;4.82;1.75;;;13.30;93.40;;;;;;5028125;28;20029;-79
2022/05/30 00:27:43;;;;;;;3.35;1.58;;;13.30;93.40;;;;;;5015400;28;20051;-78
2022/05/30 00:30:10;;;;;;;2.00;1.15;;;13.30;93.40;;;;;;5028441;28;20024;-79
2022/05/30 00:32:36;;;;;;;2.13;1.25;;;13.30;93.60;;;;;;5023216;28;20045;-79
2022/05/30 00:35:02;;;;;;;2.60;1.23;;;13.40;93.60;;;;;;5023578;28;20116;-79
2022/05/30 00:37:28;;;;;;;4.18;1.95;;;13.30;93.60;;;;;;5017810;28;20025;-78
2022/05/30 00:39:54;;;;;;;2.92;1.80;;;13.30;93.60;;;;;;5041675;28;20025;-79
2022/05/30 00:42:24;;;;;;;3.15;1.70;;;13.30;93.70;;;;;;5028303;28;20026;-79
2022/05/30 00:44:50;;;;;;;3.72;2.10;;;13.30;93.60;;;;;;5028957;28;20386;-79
2022/05/30 00:47:18;;;;;;;3.63;1.40;;;13.20;93.70;;;;;;5028088;28;20033;-79
2022/05/30 00:49:45;;;;;;;3.22;1.42;;;13.20;93.70;;;;;;5029205;28;20025;-79
2022/05/30 00:52:20;;;;;;;2.55;1.90;;;13.10;93.80;;;;;;5024634;28;20060;-78
2022/05/30 00:54:52;;;;;;;1.90;1.55;;;13.10;94.00;;;;;;5035468;28;20063;-78
2022/05/30 00:57:22;;;;;;;;;;;13.10;93.90;;;;;;5027422;28;20025;-78
2022/05/30 00:59:52;;;;;;;2.55;1.58;;;13.10;94.00;;;;;;5026636;28;19920;-78
2022/05/30 01:02:18;;;;;;;2.20;1.70;;;13.00;94.20;;;;;;5026635;28;20036;-78
2022/05/30 01:07:29;;;;;;;1.67;1.02;;;12.90;94.30;;;;;;5031694;28;20087;-78
2022/05/30 01:09:55;;;;;;;2.40;1.17;;;12.90;94.50;;;;;;5035523;28;20025;-78
2022/05/30 01:12:36;;;;;;;1.63;1.20;;;12.80;94.70;;;;;;5033336;28;20061;-78
2022/05/30 01:15:04;;;;;;;1.30;0.98;;;12.80;94.80;;;;;;5031952;28;20037;-78
2022/05/30 01:17:29;;;;;;;5.75;1.60;;;12.80;94.90;;;;;;5026717;28;20026;-78
2022/05/30 01:20:14;;;;;;;1.65;1.00;;;12.80;95.00;;;;;;5035478;28;20033;-77
2022/05/30 01:23:00;;;;;;;3.65;1.05;;;12.80;95.00;;;;;;5033002;28;21812;-78
2022/05/30 01:25:56;;;;;;;1.63;1.30;;;12.80;95.00;;;;;;5021628;28;20040;-78
2022/05/30 01:28:22;;;;;;;2.25;1.17;;;12.80;95.10;;;;;;5035135;28;20068;-78
2022/05/30 01:30:48;;;;;;;2.55;1.20;;;12.80;95.10;;;;;;5033628;28;20034;-78
2022/05/30 01:33:14;;;;;;;1.52;1.00;;;12.80;95.10;;;;;;5026960;28;20402;-78
2022/05/30 01:35:40;;;;;;;2.22;1.30;;;12.70;95.20;;;;;;5045760;28;20044;-79
2022/05/30 01:38:06;;;;;;;2.22;1.33;;;12.70;95.10;;;;;;5027348;28;20030;-79
2022/05/30 01:40:32;;;;;;;2.35;1.20;;;12.70;95.20;;;;;;5029165;28;20053;-78
2022/05/30 01:42:57;;;;;;;3.28;1.58;;;12.70;95.20;;;;;;5028129;28;20029;-78
2022/05/30 01:45:24;;;;;;;3.67;2.10;;;12.60;95.20;;;;;;5023429;28;20082;-79
2022/05/30 01:47:50;;;;;;;2.55;1.77;;;12.60;95.40;;;;;;5034256;28;20124;-78
2022/05/30 01:50:16;;;;;;;4.43;1.50;;;12.60;95.40;;;;;;5032724;28;20571;-78
2022/05/30 01:52:42;;;;;;;1.48;1.08;;;12.50;95.50;;;;;;5034291;28;20044;-78
2022/05/30 01:55:08;;;;;;;3.15;1.25;;;12.50;95.60;;;;;;5033156;28;20080;-78
2022/05/30 01:57:33;;;;;;;2.22;1.30;;;12.40;95.80;;;;;;5043312;28;20037;-78
2022/05/30 01:59:59;;;;;;;7.18;2.35;;;12.30;95.80;;;;;;5034286;28;20440;-78
2022/05/30 02:02:24;;;;;;;2.20;1.67;;;12.30;96.00;;;;;;5031130;28;20033;-78
2022/05/30 02:04:52;;;;;;;2.22;1.33;;;12.30;96.10;;;;;;5032659;28;20143;-78
2022/05/30 02:07:18;;;;;;;4.05;1.90;;;12.30;96.10;;;;;;5046510;28;20037;-79
2022/05/30 02:09:44;;;;;;;2.72;1.45;;;12.30;96.10;;;;;;5050323;28;20464;-79
2022/05/30 02:12:11;;;;;;;2.42;1.70;;;12.30;96.10;;;;;;5033152;28;20036;-78
2022/05/30 02:14:37;;;;;;;1.55;1.15;;;12.30;96.10;;;;;;5032585;28;20494;-78
2022/05/30 02:17:06;;;;;;;5.20;1.60;;;12.40;96.10;;;;;;5032416;28;20044;-78
2022/05/30 02:19:38;;;;;;;3.95;1.58;;;12.50;96.10;;;;;;5029233;28;20152;-79
2022/05/30 02:22:05;;;;;;;3.67;1.83;;;12.40;96.00;;;;;;5025550;28;20091;-78
2022/05/30 02:24:31;;;;;;;4.25;1.88;;;12.40;96.00;;;;;;5031411;28;20037;-78
2022/05/30 02:26:56;;;;;;;2.90;1.60;;;12.40;96.20;;;;;;5022041;28;20033;-77
2022/05/30 02:29:22;;;;;;;8.20;1.52;;;12.30;96.20;;;;;;5029058;28;20033;-78
2022/05/30 02:31:47;;;;;;;7.03;2.40;;;12.30;96.40;;;;;;5024592;28;20033;-79
2022/05/30 02:36:57;;;;;;;4.25;2.80;;;12.30;96.40;;;;;;5025006;28;20040;-78
2022/05/30 02:39:26;;;;;;;4.43;1.80;;;12.40;96.40;;;;;;5022254;28;20034;-78
2022/05/30 02:41:52;;;;;;;5.18;2.10;;;12.40;96.50;;;;;;5030561;28;20110;-77
2022/05/30 02:44:19;;;;;;;5.65;1.95;;;12.40;96.60;;;;;;5033077;28;20159;-77
2022/05/30 02:46:47;;;;;;;4.35;2.20;;;12.20;96.80;;;;;;5023437;28;20084;-80
2022/05/30 02:49:12;;;;;;;6.13;2.45;;;12.20;96.90;;;;;;5023632;28;20036;-78
2022/05/30 02:51:38;;;;;;;5.60;1.90;;;12.20;97.00;;;;;;5026170;28;20037;-78
2022/05/30 02:54:04;;;;;;;5.22;1.90;;;12.20;97.00;;;;;;5028232;28;20040;-81
2022/05/30 02:56:30;;;;;;;4.18;2.42;;;12.20;97.10;;;;;;5029942;28;20034;-77
2022/05/30 02:58:59;;;;;;;3.47;2.22;;;12.20;97.10;;;;;;5029503;28;20030;-78
2022/05/30 03:01:25;;;;;;;6.78;2.95;;;12.10;97.40;;;;;;5029796;28;20530;-77
2022/05/30 03:03:51;;;;;;;8.05;3.00;;;12.10;97.60;;;;;;5027811;28;20117;-78
2022/05/30 03:06:17;;;;;;;5.00;2.95;;;12.00;97.70;;;;;;5028408;28;20053;-78
2022/05/30 03:08:43;;;;;;;4.50;3.15;;;12.00;98.10;;;;;;5027070;28;20030;-77
2022/05/30 03:11:10;;;;;;;4.60;3.33;;;12.00;98.10;;;;;;5024231;28;20125;-78
2022/05/30 03:13:36;;;;;;;6.55;3.08;;;12.00;98.20;;;;;;5027045;28;20551;-78
2022/05/30 03:16:01;;;;;;;6.43;3.63;;;12.00;98.20;;;;;;5029053;28;20033;-80
2022/05/30 03:18:27;;;;;;;5.38;3.40;;;12.00;98.20;;;;;;5030772;28;20466;-80
2022/05/30 03:20:52;;;;;;;5.13;2.95;;;12.00;98.30;;;;;;5025605;28;20037;-78
2022/05/30 03:23:18;;;;;;;7.13;3.22;;;12.00;98.40;;;;;;5029441;28;20048;-78
2022/05/30 03:25:43;;;;;;;6.22;3.45;;;12.00;98.40;;;;;;5029472;28;20030;-78
2022/05/30 03:28:09;;;;;;;6.10;3.00;;;11.90;98.50;;;;;;5027313;28;20067;-78
2022/05/30 03:30:37;;;;;;;5.82;3.08;;;11.90;98.60;;;;;;5029510;28;20100;-78
2022/05/30 03:33:07;;;;;;;5.35;3.30;;;11.90;98.80;;;;;;5023779;28;20037;-78
2022/05/30 03:35:34;;;;;;;3.47;2.72;;;11.90;98.90;;;;;;5026820;28;20482;-78
2022/05/30 03:37:59;;;;;;;7.80;3.15;;;11.80;98.90;;;;;;5028256;28;20026;-78
2022/05/30 03:40:26;;;;;;;5.15;3.55;;;11.90;99.00;;;;;;5026291;28;20035;-78
2022/05/30 03:42:51;;;;;;;5.43;3.78;;;11.90;99.00;;;;;;5024326;28;20128;-78
2022/05/30 03:45:17;;;;;;;6.45;3.08;;;11.90;99.00;;;;;;5028217;28;20116;-78
2022/05/30 03:47:45;;;;;;;6.53;3.33;;;11.90;99.10;;;;;;5029909;28;20065;-78
2022/05/30 03:50:14;;;;;;;3.92;3.47;;;11.90;99.00;;;;;;5027481;28;20389;-79
2022/05/30 03:52:39;;;;;;;6.60;3.90;;;12.00;99.10;;;;;;5030029;28;20025;-78
2022/05/30 03:55:08;;;;;;;8.15;3.50;;;12.00;99.00;;;;;;5032152;28;20094;-78
2022/05/30 03:57:33;;;;;;;6.47;3.75;;;12.00;98.90;;;;;;5031416;28;20132;-79
2022/05/30 03:59:59;;;;;;;4.63;3.60;;;12.10;99.00;;;;;;5029912;28;20100;-79
2022/05/30 04:02:25;;;;;;;6.65;3.65;;;12.20;99.00;;;;;;5019317;28;20068;-78
2022/05/30 04:04:51;;;;;;;5.20;3.53;;;12.30;98.80;;;;;;5028690;28;20029;-78
2022/05/30 04:07:17;;;;;;;4.72;3.45;;;12.40;98.70;;;;;;5027875;28;20044;-78
2022/05/30 04:09:42;;;;;;;11.70;4.10;;;12.50;98.50;;;;;;5021005;28;20454;-77
2022/05/30 04:12:08;;;;;;;6.00;3.60;;;12.60;98.20;;;;;;5017885;28;20083;-79
2022/05/30 04:14:34;;;;;;;4.40;3.90;;;12.60;98.20;;;;;;5024225;28;20043;-78
2022/05/30 04:16:59;;;;;;;8.70;3.97;;;12.70;98.30;;;;;;5025020;28;20474;-78
2022/05/30 04:19:25;;;;;;;6.35;4.72;;;12.70;97.90;;;;;;5028054;28;20033;-79
2022/05/30 04:21:50;;;;;;;6.47;4.00;;;12.70;98.00;;;;;;5028449;28;20555;-78
2022/05/30 04:24:16;;;;;;;7.63;4.45;;;12.70;97.90;;;;;;5024928;28;20074;-78
2022/05/30 04:26:43;;;;;;;8.63;3.90;;;12.80;97.70;;;;;;5021479;28;20049;-79
2022/05/30 04:29:09;;;;;;;6.40;4.30;;;12.80;97.60;;;;;;5025500;28;20022;-78
2022/05/30 04:31:34;;;;;;;8.77;5.00;;;12.80;97.60;;;;;;5024105;28;20037;-78
2022/05/30 04:34:00;;;;;;;7.00;5.00;;;12.80;97.50;;;;;;5026766;28;20244;-79
2022/05/30 04:36:26;;;;;;;6.45;4.95;;;12.60;97.50;;;;;;5027507;28;20038;-78
2022/05/30 04:38:52;;;;;;;6.28;4.70;;;12.70;97.60;;;;;;5025322;28;20033;-79
2022/05/30 04:41:17;;;;;;;8.65;4.43;;;12.60;97.60;;;;;;5014732;28;20040;-78
2022/05/30 04:43:42;;;;;;;7.78;5.68;;;12.60;97.70;;;;;;5027423;28;20127;-78
2022/05/30 04:46:16;;;;;;;8.45;4.50;;;12.70;97.60;;;;;;5024109;28;20045;-78
2022/05/30 04:48:43;;;;;;;11.27;6.05;;;12.70;97.70;;;;;;5025369;28;20090;-79
2022/05/30 04:51:09;;;;;;;7.75;5.93;;;12.70;97.60;;;;;;5020111;28;20057;-78
2022/05/30 04:53:35;;;;;;;8.30;4.40;;;12.80;97.60;;;;;;5028757;28;20030;-78
2022/05/30 04:56:01;;;;;;;5.47;4.80;;;12.80;97.50;;;;;;5027242;28;20068;-79
2022/05/30 04:58:32;;;;;;;7.03;5.32;;;12.90;97.30;;;;;;5022762;28;20037;-79
2022/05/30 05:00:58;;;;;;;5.13;4.00;;;12.90;97.30;;;;;;5030137;28;20525;-78
2022/05/30 05:03:24;;;;;;;5.88;4.20;;;12.90;97.20;;;;;;5028341;28;20037;-78
2022/05/30 05:05:50;;;;;;;5.53;4.10;;;12.90;97.10;;;;;;5026517;28;20045;-78
2022/05/30 05:08:15;;;;;;;7.50;4.45;;;12.90;97.00;;;;;;5022868;28;20053;-79
2022/05/30 05:10:52;;;;;;;8.55;3.67;;;12.90;97.00;;;;;;5049570;28;20428;-79
2022/05/30 05:13:17;;;;;;;7.60;3.88;;;12.80;97.00;;;;;;5029534;28;20029;-79
2022/05/30 05:15:43;;;;;;;6.35;4.03;;;12.90;97.20;;;;;;5027763;28;20038;-79
2022/05/30 05:18:09;;;;;;;6.63;3.72;;;13.00;97.10;;;;;;5014658;28;20096;-78
2022/05/30 05:20:41;;;;;;;6.53;4.63;;;13.00;97.00;;;;;;5010904;28;20035;-77
2022/05/30 05:23:07;;;;;;;9.25;4.70;;;13.10;97.10;;;;;;5025824;28;20501;-77
2022/05/30 05:25:36;;;;;;;4.28;3.80;;;13.10;96.90;;;;;;5029922;28;20030;-79
2022/05/30 05:28:02;;;;;;;7.00;4.20;;;13.20;97.00;;;;;;5029665;28;20441;-80
2022/05/30 05:30:27;;;;;;;7.93;3.58;;;13.20;96.90;;;;;;5030414;28;20037;-81
2022/05/30 05:32:53;;;;;;;5.60;3.42;;;13.10;96.60;;;;;;5028984;28;20057;-81
2022/05/30 05:35:19;;;;;;;4.88;3.47;;;13.00;96.60;;;;;;5031891;28;20037;-80
2022/05/30 05:37:44;;;;;;;6.55;2.90;;;12.90;96.40;;;;;;5030836;28;20070;-80
2022/05/30 05:40:10;;;;;;;8.82;3.50;;;12.80;96.70;;;;;;5030832;28;20410;-81
2022/05/30 05:42:35;;;;;;;5.10;3.20;;;12.80;96.70;;;;;;5031049;28;20064;-78
2022/05/30 05:45:01;;;;;;;10.85;3.40;;;12.70;96.70;;;;;;5030315;28;20063;-80
2022/05/30 05:47:26;;;;;;;8.05;3.25;;;12.70;96.60;;;;;;5030328;28;20030;-81
2022/05/30 05:49:52;;;;;;;5.90;3.33;;;12.70;96.80;;;;;;5027711;28;20029;-78
2022/05/30 05:52:17;;;;;;;9.27;3.60;;;12.70;96.90;;;;;;5019161;28;20038;-78
2022/05/30 05:54:43;;;;;;;13.52;4.22;;;12.70;97.00;;;;;;5013769;28;20041;-77
2022/05/30 05:57:10;;;;;;;8.82;4.60;;;12.70;97.10;;;;;;5022956;28;20136;-78
2022/05/30 05:59:35;;;;;;;8.65;3.70;;;12.70;97.10;;;;;;5042414;28;20120;-78
2022/05/30 06:02:01;;;;;;;11.57;4.90;;;12.70;97.30;;;;;;5021835;28;20367;-79
2022/05/30 06:04:26;;;;;;;10.63;4.00;;;12.60;97.10;;;;;;5030150;28;20029;-79
2022/05/30 06:06:52;;;;;;;11.10;4.22;;;12.50;97.30;;;;;;5030912;28;20112;-80
2022/05/30 06:09:17;;;;;;;11.25;4.50;;;12.50;97.40;;;;;;5032079;28;20036;-78
2022/05/30 06:11:43;;;;;;;10.65;4.38;;;12.50;97.40;;;;;;5030789;28;20080;-78
2022/05/30 06:14:08;;;;;;;6.95;3.78;;;12.40;97.40;;;;;;5028029;28;20639;-78
2022/05/30 06:16:39;;;;;;;9.02;4.05;;;12.40;97.70;;;;;;5028447;28;20029;-79
2022/05/30 06:19:05;;;;;;;8.95;4.15;;;12.40;97.70;;;;;;5018392;28;20763;-79
2022/05/30 06:21:33;;;;;;;9.10;4.10;;;12.60;97.50;;;;;;5014150;28;20025;-78
2022/05/30 06:23:59;;;;;;;8.32;3.72;;;12.50;97.10;;;;;;5030191;28;20034;-82
2022/05/30 06:26:26;;;;;;;15.07;3.75;;;12.50;97.30;;;;;;5029533;28;20040;-79
2022/05/30 06:28:54;;;;;;;7.43;3.75;;;12.50;97.40;;;;;;5032347;28;20033;-79
2022/05/30 06:31:25;;;;;;;8.70;4.93;;;12.60;97.40;;;;;;5028671;28;20032;-79
2022/05/30 06:33:50;;;;;;;8.60;3.85;;;12.60;97.70;;;;;;5029925;28;20085;-79
2022/05/30 06:36:18;;;;;;;10.73;4.40;;;12.50;97.70;;;;;;5024882;28;20498;-80
2022/05/30 06:38:44;;;;;;;9.55;4.68;;;12.50;97.70;;;;;;5013037;28;20117;-79
2022/05/30 06:41:15;;;;;;;4.57;3.25;;;12.60;97.60;;;;;;5010838;28;20105;-80
2022/05/30 06:43:41;;;;;;;8.85;3.15;;;12.70;97.10;;;;;;5016424;28;20685;-79
2022/05/30 06:46:06;;;;;;;7.90;3.08;;;12.70;97.00;;;;;;5028227;28;20064;-78
2022/05/30 06:48:32;;;;;;;7.03;3.15;;;12.80;97.00;;;;;;5030550;28;20061;-79
2022/05/30 06:51:01;;;;;;;7.90;2.67;;;12.90;96.70;;;;;;5045425;28;20665;-78
2022/05/30 06:53:26;;;;;;;9.38;3.42;;;13.00;96.00;;;;;;5029947;28;20036;-80
2022/05/30 06:55:52;;;;;;;5.00;2.33;;;13.10;95.90;;;;;;5020969;28;20030;-80
2022/05/30 06:58:17;;;;;;;6.88;3.47;;;13.20;95.90;;;;;;5009951;28;20038;-79
2022/05/30 07:00:44;;;;;;;8.18;2.80;;;13.30;95.40;;;;;;5024261;28;20124;-78
2022/05/30 07:03:12;;;;;;;5.60;2.83;;;13.30;95.20;;;;;;5015715;28;20102;-80
2022/05/30 07:05:38;;;;;;;7.53;3.03;;;13.40;95.20;;;;;;5009762;28;20621;-80
2022/05/30 07:08:04;;;;;;;5.18;2.15;;;13.40;94.70;;;;;;5018733;28;20077;-79
2022/05/30 07:10:30;;;;;;;4.70;2.22;;;13.50;94.50;;;;;;5012033;28;20060;-79
2022/05/30 07:12:57;;;;;;;8.40;2.42;;;13.60;94.40;;;;;;5017096;28;20033;-79
2022/05/30 07:15:23;;;;;;;5.50;1.70;;;13.70;94.40;;;;;;5029221;28;20041;-79
2022/05/30 07:17:48;;;;;;;8.65;2.47;;;13.80;94.10;;;;;;5029646;28;20497;-79
2022/05/30 07:20:14;;;;;;;8.07;2.20;;;13.90;94.40;;;;;;5023717;28;20034;-79
2022/05/30 07:22:40;;;;;;;6.72;1.92;;;13.90;93.80;;;;;;5010973;28;20683;-79
2022/05/30 07:25:06;;;;;;;3.70;1.60;;;13.90;93.70;;;;;;5014357;28;20094;-79
2022/05/30 07:27:32;;;;;;;6.43;2.15;;;14.00;93.80;;;;;;5028143;28;20095;-77
2022/05/30 07:29:57;;;;;;;12.25;2.15;;;14.10;93.90;;;;;;5028049;28;20125;-77
2022/05/30 07:32:23;;;;;;;5.80;1.80;;;14.10;93.80;;;;;;5029165;28;20494;-77
2022/05/30 07:34:48;;;;;;;6.65;1.95;;;14.20;93.80;;;;;;5026750;28;20438;-76
2022/05/30 07:37:14;;;;;;;3.22;1.02;;;14.20;93.80;;;;;;5009896;28;20038;-77
2022/05/30 07:39:40;;;;;;;6.95;1.65;;;14.30;93.20;;;;;;5026397;28;20281;-76
2022/05/30 07:42:06;;;;;;;14.60;2.67;;;14.30;93.40;;;;;;5026419;28;20069;-77
2022/05/30 07:44:32;;;;;;;6.85;2.38;;;14.40;93.30;;;;;;5027110;28;20030;-79
2022/05/30 07:46:59;;;;;;;5.28;1.13;;;14.40;93.30;;;;;;5028204;28;20033;-78
2022/05/30 07:49:25;;;;;;;2.78;0.98;;;14.50;92.70;;;;;;5030456;28;20032;-80
2022/05/30 07:51:50;;;;;;;4.55;1.30;;;14.50;92.90;;;;;;5029210;28;20037;-79
2022/05/30 07:54:15;;;;;;;4.13;1.70;;;14.40;93.50;;;;;;5042895;28;20377;-81
2022/05/30 07:56:41;;;;;;;7.70;1.92;;;14.40;93.50;;;;;;5024473;28;20079;-78
2022/05/30 07:59:07;;;;;;;5.80;1.92;;;14.40;94.00;;;;;;5028760;28;20133;-80
2022/05/30 08:01:33;;;;;;;5.57;1.65;;;14.50;93.90;;;;;;5027239;28;20025;-79
2022/05/30 08:03:59;;;;;;;5.38;1.30;;;14.50;93.80;;;;;;5026458;28;20060;-78
2022/05/30 08:06:27;;;;;;;5.30;1.50;;;14.50;93.80;;;;;;5018229;28;20033;-79
2022/05/30 08:08:53;;;;;;;9.77;2.10;;;14.50;93.70;;;;;;5030158;28;20053;-79
2022/05/30 08:11:23;;;;;;;4.60;1.10;;;14.60;93.40;;;;;;5027014;28;20124;-79
2022/05/30 08:13:49;;;;;;;3.08;1.00;;;14.50;92.70;;;;;;5017167;28;20033;-80
2022/05/30 08:16:18;;;;;;;7.22;1.77;;;14.60;93.20;;;;;;5014770;28;20124;-79
2022/05/30 08:18:44;;;;;;;4.05;1.55;;;14.80;92.90;;;;;;5024849;28;20461;-78
2022/05/30 08:21:09;;;;;;;5.15;1.30;;;14.80;92.50;;;;;;5029352;28;20092;-79
2022/05/30 08:23:35;;;;;;;4.65;1.20;;;14.90;92.10;;;;;;5031558;28;20033;-77
2022/05/30 08:26:00;;;;;;;5.82;1.70;;;14.90;91.90;;;;;;5024818;28;20042;-78
2022/05/30 08:28:26;;;;;;;3.25;1.05;;;15.00;91.80;;;;;;5028268;28;20072;-78
2022/05/30 08:30:51;;;;;;;6.07;1.15;;;15.00;92.10;;;;;;5029516;28;20029;-78
2022/05/30 08:33:19;;;;;;;2.03;0.65;;;15.10;91.90;;;;;;5026830;28;20033;-79
2022/05/30 08:35:47;;;;;;;3.05;0.80;;;15.00;90.50;;;;;;5026628;28;20033;-78
2022/05/30 08:38:13;;;;;;;4.93;1.25;;;15.10;90.20;;;;;;5027624;28;20036;-79
2022/05/30 08:43:38;;;;;;;4.28;1.05;;;15.20;90.70;;;;;;5028337;28;20153;-77
2022/05/30 08:46:23;;;;;;;5.30;0.93;;;15.30;90.30;;;;;;5027237;28;20529;-79
2022/05/30 08:48:48;;;;;;;3.10;1.38;;;15.30;90.10;;;;;;5029599;28;20037;-77
2022/05/30 08:51:34;;;;;;;4.63;1.63;;;15.30;90.00;;;;;;5029750;28;20045;-80
2022/05/30 08:54:28;;;;;;;7.30;1.10;;;15.30;90.10;;;;;;5027319;28;20037;-79
2022/05/30 08:56:56;;;;;;;4.57;1.40;;;15.30;90.20;;;;;;5030938;28;20026;-78
2022/05/30 08:59:39;;;;;;;2.72;1.45;;;15.30;90.80;;;;;;5035046;28;20033;-78
2022/05/30 09:02:30;;;;;;;7.18;1.65;;;15.40;90.80;;;;;;5027263;28;20662;-77
2022/05/30 09:05:14;;;;;;;5.65;1.20;;;15.60;90.70;;;;;;5036085;28;20615;-78
2022/05/30 09:07:43;;;;;;;3.75;0.90;;;15.70;89.70;;;;;;5028216;28;20057;-79
2022/05/30 09:10:13;;;;;;;1.55;0.90;;;15.90;88.80;;;;;;5027414;28;20108;-78
2022/05/30 09:12:48;;;;;;;6.68;1.30;;;16.00;89.50;;;;;;5027103;28;20026;-78
2022/05/30 09:15:24;;;;;;;2.90;1.85;;;16.30;88.10;;;;;;5028118;28;20056;-78
2022/05/30 09:18:08;;;;;;;4.15;1.13;;;16.50;87.10;;;;;;5043951;28;20034;-77
2022/05/30 09:20:35;;;;;;;4.00;1.10;;;16.70;86.80;;;;;;5029026;28;20034;-80
2022/05/30 09:23:02;;;;;;;3.47;1.33;;;16.70;85.70;;;;;;5027270;28;20095;-80
2022/05/30 09:26:00;;;;;;;3.30;1.13;;;16.70;86.70;;;;;;5025207;28;20532;-79
2022/05/30 09:28:30;;;;;;;3.78;1.17;;;16.70;86.00;;;;;;5032009;28;20505;-77
2022/05/30 09:31:20;;;;;;;3.03;1.63;;;16.80;84.90;;;;;;5032478;28;20025;-79
2022/05/30 09:33:53;;;;;;;1.85;0.82;;;16.80;84.60;;;;;;5031145;28;20044;-79
2022/05/30 09:36:21;;;;;;;3.55;1.55;;;16.80;85.90;;;;;;5028961;28;20544;-79
2022/05/30 09:39:22;;;;;;;3.35;1.20;;;16.70;86.00;;;;;;5021373;28;20022;-78
2022/05/30 09:41:58;;;;;;;4.60;1.40;;;16.60;87.70;;;;;;5028846;28;20038;-77
2022/05/30 09:44:44;;;;;;;4.65;1.52;;;16.60;87.50;;;;;;5030674;28;20087;-78
2022/05/30 09:47:37;;;;;;;4.63;1.65;;;16.50;86.70;;;;;;5031474;28;20069;-79
2022/05/30 09:50:15;;;;;;;3.50;1.15;;;16.50;89.60;;;;;;5031160;28;20180;-79
2022/05/30 09:52:41;;;;;;;3.83;1.95;;;16.60;86.00;;;;;;5031979;28;20033;-80
2022/05/30 09:55:38;;;;;;;2.70;1.10;;;16.90;87.50;;;;;;5032603;28;20045;-79
2022/05/30 09:58:07;;;;;;;3.55;1.75;;;17.30;82.80;;;;;;5013477;28;20384;-79
2022/05/30 10:00:41;;;;;;;4.35;1.83;;;17.60;82.00;;;;;;5028919;28;20076;-79
2022/05/30 10:03:41;;;;;;;3.05;1.50;;;17.80;80.10;;;;;;5023810;28;20038;-80
2022/05/30 10:06:15;;;;;;;2.60;1.35;;;18.00;78.30;;;;;;5017666;28;20022;-81
2022/05/30 10:08:48;;;;;;;3.40;1.00;;;18.10;79.80;;;;;;5028441;28;20053;-77
2022/05/30 10:11:32;;;;;;;6.13;1.67;;;18.10;78.30;;;;;;5029884;28;20515;-81
2022/05/30 10:14:17;;;;;;;3.63;1.20;;;18.10;78.70;;;;;;5030998;28;20032;-79
2022/05/30 10:16:44;;;;;;;3.70;0.85;;;18.20;79.40;;;;;;5022790;28;20113;-82
2022/05/30 10:19:35;;;;;;;2.88;1.13;;;18.10;77.90;;;;;;5013620;28;20040;-80
2022/05/30 10:28:55;;;;;;;1.40;0.80;;;17.70;76.80;;;;;;5022933;28;20056;-79
2022/05/30 10:32:23;;;;;;;2.83;0.50;;;17.60;77.60;;;;;;5022772;28;20030;-80
2022/05/30 10:35:14;;;;;;;3.13;1.17;;;17.70;76.20;;;;;;5030772;28;20033;-79
2022/05/30 10:38:11;;;;;;;2.00;0.57;;;17.70;78.40;;;;;;5045412;28;20025;-80
2022/05/30 10:40:43;;;;;;;2.55;0.80;;;17.70;77.60;;;;;;5045252;28;20440;-80
2022/05/30 10:43:41;;;;;;;1.30;0.73;;;17.90;78.70;;;;;;5021526;28;20702;-80
2022/05/30 10:46:27;;;;;;;2.90;1.08;;;18.20;77.20;;;;;;5007364;28;20068;-77
2022/05/30 10:49:19;;;;;;;1.98;0.75;;;18.60;77.60;;;;;;5012182;28;20084;-79
2022/05/30 10:51:58;;;;;;;4.10;0.80;;;18.80;74.60;;;;;;5011152;28;20034;-81
2022/05/30 10:54:49;;;;;;;2.83;1.00;;;19.00;75.00;;;;;;5021487;28;20378;-78
2022/05/30 10:57:28;;;;;;;1.63;0.90;;;19.30;77.80;;;;;;5029618;28;20447;-78
2022/05/30 11:00:05;;;;;;;1.15;0.70;;;19.60;76.10;;;;;;5021231;28;20026;-80
2022/05/30 11:02:57;;;;;;;3.00;1.02;;;19.90;73.00;;;;;;5024785;28;20401;-79
2022/05/30 11:06:01;;;;;;;2.97;1.17;;;20.00;71.00;;;;;;5019913;28;20096;-79
2022/05/30 11:08:56;;;;;;;2.22;0.80;;;19.80;73.10;;;;;;5011530;28;20413;-81
2022/05/30 11:12:02;;;;;;;5.30;1.05;;;19.80;70.90;;;;;;5037915;28;20101;-79
2022/05/30 11:14:42;;;;;;;2.22;0.70;;;19.70;70.10;;;;;;5031559;28;20038;-79
2022/05/30 11:17:33;;;;;;;2.75;1.30;;;19.60;70.00;;;;;;5027720;28;20111;-80
2022/05/30 11:20:21;;;;;;;1.98;0.90;;;19.60;72.70;;;;;;5025429;28;20037;-78
2022/05/30 11:22:49;;;;;;;3.35;0.75;;;19.70;70.50;;;;;;5029274;28;20120;-79
2022/05/30 11:25:20;;;;;;;1.77;0.73;;;19.70;70.50;;;;;;5029964;28;20274;-78
2022/05/30 11:27:59;;;;;;;2.22;0.80;;;19.70;70.50;;;;;;5031335;28;20416;-80
2022/05/30 11:30:32;;;;;;;1.58;0.50;;;20.00;68.30;;;;;;5043324;28;20499;-80
2022/05/30 11:32:58;;;;;;;;;;;20.20;67.90;;;;;;5017009;28;20080;-79
2022/05/30 11:35:58;;;;;;;5.10;0.98;;;20.20;67.60;;;;;;5042680;28;20124;-81
2022/05/30 11:39:03;;;;;;;3.28;0.90;;;20.20;66.30;;;;;;5029237;28;20103;-79
2022/05/30 11:42:23;;;;;;;2.40;0.65;;;20.10;66.60;;;;;;5030462;28;20029;-81
2022/05/30 11:45:07;;;;;;;1.83;0.60;;;19.90;67.20;;;;;;5010625;28;20042;-79
2022/05/30 11:48:00;;;;;;;2.90;1.00;;;19.80;66.60;;;;;;5029057;28;20443;-81
2022/05/30 11:50:30;;;;;;;3.05;1.35;;;19.60;67.60;;;;;;5029691;28;20025;-77
2022/05/30 11:53:34;;;;;;;2.60;0.82;;;19.50;66.60;;;;;;5030003;28;20033;-78
2022/05/30 11:56:03;;;;;;;0.75;0.40;;;19.40;69.20;;;;;;5018466;28;20068;-77
2022/05/30 11:58:51;;;;;;;2.78;0.73;;;19.30;68.10;;;;;;5015536;28;20021;-78
2022/05/30 12:01:28;;;;;;;4.07;1.17;;;19.30;68.50;;;;;;5025638;28;20084;-78
2022/05/30 12:04:25;;;;;;;6.13;1.33;;;19.10;73.00;;;;;;5031295;28;20025;-78
2022/05/30 12:07:36;;;;;;;2.53;1.00;;;18.70;75.10;;;;;;5029137;28;20038;-79
2022/05/30 12:10:38;;;;;;;4.43;1.33;;;18.20;76.00;;;;;;5006578;28;20041;-80
2022/05/30 12:13:10;;;;;;;3.53;1.50;;;17.60;78.10;;;;;;5022968;28;20031;-80
2022/05/30 12:16:15;;;;;;;2.67;1.20;;;17.20;79.20;;;;;;5028267;28;20033;-78
2022/05/30 12:24:40;;;;;;;2.40;1.48;;;16.00;83.00;;;;;;5027647;28;20053;-80
2022/05/30 12:27:32;;;;;;;2.47;1.58;;;15.70;83.60;;;;;;5022469;28;20091;-80
2022/05/30 12:30:00;;;;;;;2.50;1.70;;;15.50;83.10;;;;;;5028387;28;20071;-80
2022/05/30 12:32:40;;;;;;;3.60;1.83;;;15.30;83.70;;;;;;5029566;28;20048;-81
2022/05/30 12:35:23;;;;;;;5.43;1.77;;;15.20;84.60;;;;;;5027822;28;20433;-78
2022/05/30 12:37:59;;;;;;;2.63;1.30;;;15.20;85.70;;;;;;5028078;28;20057;-77
2022/05/30 12:40:28;;;;;;;3.55;1.38;;;15.20;85.60;;;;;;5029539;28;20021;-78
2022/05/30 12:43:02;;;;;;;3.53;1.45;;;15.20;85.20;;;;;;5029866;28;20041;-78
2022/05/30 12:45:40;;;;;;;2.08;0.88;;;15.20;86.50;;;;;;5026848;28;20439;-78
2022/05/30 12:48:24;;;;;;;1.77;1.23;;;15.10;88.30;;;;;;5026287;28;20120;-81
2022/05/30 12:50:50;;;;;;;2.13;0.80;;;15.20;89.80;;;;;;5029142;28;20032;-80
2022/05/30 12:53:16;;;;;;;3.67;1.10;;;15.40;88.60;;;;;;5029446;28;20107;-79
2022/05/30 12:56:13;;;;;;;3.25;1.20;;;15.60;87.70;;;;;;5027567;28;20025;-77
2022/05/30 12:58:57;;;;;;;1.35;0.95;;;15.90;85.90;;;;;;5026655;28;20046;-80
2022/05/30 13:01:43;;;;;;;4.55;0.90;;;16.30;83.30;;;;;;5028058;28;20033;-80
2022/05/30 13:04:34;;;;;;;4.50;1.10;;;16.80;79.60;;;;;;5024222;28;20040;-77
2022/05/30 13:07:18;;;;;;;1.33;0.85;;;17.10;81.90;;;;;;5026464;28;20045;-80
2022/05/30 13:09:57;;;;;;;0.77;0.77;;;17.40;77.60;;;;;;5028401;28;20413;-78
2022/05/30 13:13:06;;;;;;;1.00;0.75;;;17.50;75.40;;;;;;5027602;28;20030;-78
2022/05/30 13:15:55;;;;;;;1.63;0.70;;;17.70;76.40;;;;;;5005480;28;20034;-79
2022/05/30 13:18:22;;;;;;;0.95;0.50;;;18.00;74.10;;;;;;5009612;28;20065;-80
2022/05/30 13:20:54;;;;;;;1.88;0.68;;;18.30;73.00;;;;;;5029553;28;20045;-81
2022/05/30 13:23:34;;;;;;;0.80;0.60;;;18.50;72.00;;;;;;5024656;28;20029;-81
2022/05/30 13:26:03;;;;;;;1.40;0.40;;;18.80;73.00;;;;;;5025612;28;20052;-82
2022/05/30 13:28:48;;;;;;;0.77;0.45;;;19.10;70.70;;;;;;5043779;28;20395;-81
2022/05/30 13:31:18;;;;;;;1.00;0.40;;;19.30;69.40;;;;;;5008324;28;20556;-79
2022/05/30 13:33:50;;;;;;;0.90;0.50;;;19.50;68.90;;;;;;5026008;28;20030;-80